sensor_id;sensor_type;location;lat;lon;timestamp;pressure;altitude;pressure_sealevel;temperature;humidity
48095;BME280;33874;52.070;-0.516;2023-03-18T09:30:16;100158.14;;;12.17;82.36
48095;BME280;33874;52.070;-0.516;2023-03-18T12:46:35;100202.10;;;12.26;82.48
48095;BME280;33874;52.070;-0.516;2023-03-18T16:47:55;100178.92;;;14.77;74.38
48095;BME280;33874;52.070;-0.516;2023-03-18T17:30:14;100247.42;;;14.16;73.29
48095;BME280;33874;52.070;-0.516;2023-03-18T18:17:04;100287.23;;;12.05;75.17
48095;BME280;33874;52.070;-0.516;2023-03-18T18:21:10;100289.15;;;11.96;75.23
48095;BME280;33874;52.070;-0.516;2023-03-18T18:24:51;100297.25;;;11.87;75.39
48095;BME280;33874;52.070;-0.516;2023-03-18T18:31:34;100294.73;;;11.64;75.56
48095;BME280;33874;52.070;-0.516;2023-03-18T18:37:45;100305.22;;;11.46;76.12
48095;BME280;33874;52.070;-0.516;2023-03-18T20:10:26;100388.91;;;11.19;79.21
48095;BME280;33874;52.070;-0.516;2023-03-18T20:13:48;100395.14;;;11.15;79.32
48095;BME280;33874;52.070;-0.516;2023-03-18T20:24:16;100414.17;;;11.02;79.46
48095;BME280;33874;52.070;-0.516;2023-03-18T20:46:11;100447.67;;;10.90;79.50
48095;BME280;33874;52.070;-0.516;2023-03-18T20:48:40;100451.42;;;10.88;79.32
48095;BME280;33874;52.070;-0.516;2023-03-18T20:51:18;100449.66;;;10.86;79.53
48095;BME280;33874;52.070;-0.516;2023-03-18T20:53:47;100453.92;;;10.85;79.60
48095;BME280;33874;52.070;-0.516;2023-03-18T20:56:15;100456.15;;;10.86;79.76
48095;BME280;33874;52.070;-0.516;2023-03-18T20:58:45;100454.80;;;10.85;79.68
48095;BME280;33874;52.070;-0.516;2023-03-18T21:01:13;100459.23;;;10.85;79.88
48095;BME280;33874;52.070;-0.516;2023-03-18T21:03:42;100460.04;;;10.86;80.05
48095;BME280;33874;52.070;-0.516;2023-03-18T21:06:14;100454.92;;;10.86;79.96
48095;BME280;33874;52.070;-0.516;2023-03-18T21:08:44;100451.98;;;10.85;79.91
48095;BME280;33874;52.070;-0.516;2023-03-18T21:11:20;100454.17;;;10.82;79.85
48095;BME280;33874;52.070;-0.516;2023-03-18T21:13:49;100461.89;;;10.79;79.73
48095;BME280;33874;52.070;-0.516;2023-03-18T21:16:17;100463.63;;;10.79;80.10
48095;BME280;33874;52.070;-0.516;2023-03-18T21:18:46;100469.50;;;10.80;80.17
48095;BME280;33874;52.070;-0.516;2023-03-18T21:21:22;100466.21;;;10.81;80.35
48095;BME280;33874;52.070;-0.516;2023-03-18T21:23:51;100466.46;;;10.83;80.55
48095;BME280;33874;52.070;-0.516;2023-03-18T21:26:21;100470.05;;;10.86;80.70
48095;BME280;33874;52.070;-0.516;2023-03-18T21:28:49;100472.33;;;10.88;80.60
48095;BME280;33874;52.070;-0.516;2023-03-18T21:33:48;100473.60;;;10.83;80.13
48095;BME280;33874;52.070;-0.516;2023-03-18T21:36:16;100474.21;;;10.80;80.03
48095;BME280;33874;52.070;-0.516;2023-03-18T21:38:44;100473.36;;;10.80;80.23
48095;BME280;33874;52.070;-0.516;2023-03-18T21:41:20;100476.73;;;10.81;80.46
48095;BME280;33874;52.070;-0.516;2023-03-18T21:43:48;100481.52;;;10.81;80.23
48095;BME280;33874;52.070;-0.516;2023-03-18T21:46:18;100484.65;;;10.76;80.04
48095;BME280;33874;52.070;-0.516;2023-03-18T21:48:46;100490.66;;;10.73;80.28
48095;BME280;33874;52.070;-0.516;2023-03-18T21:51:27;100486.20;;;10.72;80.53
48095;BME280;33874;52.070;-0.516;2023-03-18T21:54:15;100483.31;;;10.71;80.58
48095;BME280;33874;52.070;-0.516;2023-03-18T21:56:44;100481.34;;;10.70;80.67
48095;BME280;33874;52.070;-0.516;2023-03-18T21:59:12;100479.69;;;10.69;80.71
48095;BME280;33874;52.070;-0.516;2023-03-18T22:01:40;100474.45;;;10.62;80.56
48095;BME280;33874;52.070;-0.516;2023-03-18T22:04:08;100471.40;;;10.57;80.68
48095;BME280;33874;52.070;-0.516;2023-03-18T22:06:36;100471.91;;;10.53;80.77
48095;BME280;33874;52.070;-0.516;2023-03-18T22:09:04;100469.24;;;10.51;80.95
48095;BME280;33874;52.070;-0.516;2023-03-18T22:11:32;100471.91;;;10.49;80.98
48095;BME280;33874;52.070;-0.516;2023-03-18T22:14:00;100474.08;;;10.47;81.02
48095;BME280;33874;52.070;-0.516;2023-03-18T22:16:27;100473.41;;;10.46;81.33
48095;BME280;33874;52.070;-0.516;2023-03-18T22:18:55;100474.66;;;10.46;81.48
48095;BME280;33874;52.070;-0.516;2023-03-18T22:21:24;100478.92;;;10.45;81.49
48095;BME280;33874;52.070;-0.516;2023-03-18T22:23:52;100478.17;;;10.44;81.61
48095;BME280;33874;52.070;-0.516;2023-03-18T22:26:20;100477.30;;;10.42;81.69
48095;BME280;33874;52.070;-0.516;2023-03-18T22:28:48;100476.35;;;10.43;81.89
48095;BME280;33874;52.070;-0.516;2023-03-18T22:31:18;100478.27;;;10.43;81.97
48095;BME280;33874;52.070;-0.516;2023-03-18T22:33:46;100471.82;;;10.44;82.15
48095;BME280;33874;52.070;-0.516;2023-03-18T22:36:14;100475.02;;;10.46;82.32
48095;BME280;33874;52.070;-0.516;2023-03-18T22:38:44;100472.77;;;10.45;82.22
48095;BME280;33874;52.070;-0.516;2023-03-18T22:41:16;100464.92;;;10.47;82.40
48095;BME280;33874;52.070;-0.516;2023-03-18T22:43:45;100464.11;;;10.48;82.58
48095;BME280;33874;52.070;-0.516;2023-03-18T22:46:14;100464.52;;;10.49;82.62
48095;BME280;33874;52.070;-0.516;2023-03-18T22:48:42;100464.72;;;10.49;82.56
48095;BME280;33874;52.070;-0.516;2023-03-18T22:51:23;100465.80;;;10.48;82.52
48095;BME280;33874;52.070;-0.516;2023-03-18T22:53:52;100462.96;;;10.49;82.68
48095;BME280;33874;52.070;-0.516;2023-03-18T22:56:20;100467.45;;;10.50;82.86
48095;BME280;33874;52.070;-0.516;2023-03-18T22:58:49;100474.52;;;10.49;82.74
48095;BME280;33874;52.070;-0.516;2023-03-18T23:01:19;100477.23;;;10.48;82.68
48095;BME280;33874;52.070;-0.516;2023-03-18T23:03:47;100478.60;;;10.47;82.61
48095;BME280;33874;52.070;-0.516;2023-03-18T23:06:16;100487.23;;;10.47;82.82
48095;BME280;33874;52.070;-0.516;2023-03-18T23:08:46;100484.55;;;10.47;82.75
48095;BME280;33874;52.070;-0.516;2023-03-18T23:11:14;100482.66;;;10.45;82.77
48095;BME280;33874;52.070;-0.516;2023-03-18T23:13:48;100482.62;;;10.45;82.92
48095;BME280;33874;52.070;-0.516;2023-03-18T23:16:17;100488.91;;;10.44;82.72
48095;BME280;33874;52.070;-0.516;2023-03-18T23:18:49;100497.86;;;10.40;82.68
48095;BME280;33874;52.070;-0.516;2023-03-18T23:21:18;100502.09;;;10.32;82.44
48095;BME280;33874;52.070;-0.516;2023-03-18T23:23:47;100515.95;;;10.26;82.69
48095;BME280;33874;52.070;-0.516;2023-03-18T23:26:15;100530.25;;;10.15;82.20
48095;BME280;33874;52.070;-0.516;2023-03-18T23:28:43;100537.23;;;9.97;81.41
48095;BME280;33874;52.070;-0.516;2023-03-18T23:31:12;100543.84;;;9.79;81.16
48095;BME280;33874;52.070;-0.516;2023-03-18T23:33:41;100543.41;;;9.65;81.26
48095;BME280;33874;52.070;-0.516;2023-03-18T23:36:09;100545.13;;;9.57;81.32
48095;BME280;33874;52.070;-0.516;2023-03-18T23:38:37;100549.42;;;9.48;81.46
48095;BME280;33874;52.070;-0.516;2023-03-18T23:41:05;100552.84;;;9.38;81.60
48095;BME280;33874;52.070;-0.516;2023-03-18T23:43:33;100562.09;;;9.33;81.81
48095;BME280;33874;52.070;-0.516;2023-03-18T23:46:02;100566.17;;;9.28;81.93
48095;BME280;33874;52.070;-0.516;2023-03-18T23:48:30;100565.47;;;9.22;82.03
48095;BME280;33874;52.070;-0.516;2023-03-18T23:50:58;100569.28;;;9.18;82.23
48095;BME280;33874;52.070;-0.516;2023-03-18T23:53:26;100576.27;;;9.12;82.01
48095;BME280;33874;52.070;-0.516;2023-03-18T23:55:54;100583.33;;;9.07;82.02
48095;BME280;33874;52.070;-0.516;2023-03-18T23:58:22;100588.23;;;9.05;82.13
